Observations for NORWICH WEA CNTRE, United Kingdom (EGSH)

EGSH 221220Z 13005KT 100V190 9999 FEW022 BKN027 20/15 Q1020 NOSIG   
EGSH 221150Z 16006KT 120V200 9999 FEW022 BKN027 20/15 Q1020 NOSIG   
EGSH 221120Z 13005KT 080V190 9999 BKN025 20/15 Q1020 NOSIG  
EGSH 221050Z 12006KT 080V160 9999 BKN030 21/15 Q1020 NOSIG  
EGSH 221020Z 12005KT 070V200 9999 SCT023 20/14 Q1020 NOSIG  
EGSH 220950Z 13005KT 090V180 9999 FEW020 SCT030 21/15 Q1020 NOSIG   
EGSH 220920Z VRB02KT 9999 SCT032 20/15 Q1021 NOSIG  
EGSH 220850Z VRB03KT 9999 SCT032 19/16 Q1021 NOSIG  
EGSH 220820Z VRB01KT 9999 SCT032 18/16 Q1021 NOSIG  
EGSH 220750Z 00000KT 9000 SCT032 18/16 Q1021 NOSIG  
EGSH 220720Z VRB01KT 8000 SCT032 17/15 Q1021 NOSIG  
EGSH 220650Z 00000KT 7000 3000NE SCT030 16/15 Q1021 TEMPO 3000 BR   
EGSH 220620Z VRB01KT 7000 3000NE SCT030 15/14 Q1021 TEMPO 3000 BR   
EGSH 220550Z 00000KT 7000 3000NE SCT030 15/14 Q1021 TEMPO 3000 BR   
EGSH 220520Z 07002KT 7000 NSC 14/13 Q1020 NOSIG 
EGSH 220450Z 00000KT 7000 NSC 14/13 Q1020 NOSIG 
EGSH 220420Z AUTO VRB02KT 6000 FEW028/// BKN041/// 14/13 Q1020  
EGSH 220350Z AUTO 33001KT 9999 OVC041/// 15/14 Q1020
EGSH 220320Z AUTO 00000KT 9999 OVC043/// 15/14 Q1020
EGSH 220250Z AUTO VRB01KT 9999 SCT030/// OVC046/// 15/14 Q1021  
EGSH 220220Z AUTO VRB01KT 9999 OVC030/// 15/14 Q1021
EGSH 220150Z AUTO VRB01KT 9999 OVC030/// 15/14 Q1021 RESHGR 
EGSH 220120Z AUTO VRB01KT 9999 OVC030/// 16/14 Q1021
EGSH 220050Z AUTO VRB02KT 9999 OVC031/// 16/14 Q1021
EGSH 220020Z AUTO VRB03KT 9999 OVC031/// 16/14 Q1021
EGSH 212350Z AUTO 14003KT 9999 OVC031/// 16/14 Q1021
EGSH 212320Z AUTO VRB03KT 9999 OVC032/// 16/14 Q1021
EGSH 212250Z AUTO VRB03KT 9999 OVC032/// 16/14 Q1021
EGSH 212220Z AUTO VRB03KT 9999 OVC031/// 16/14 Q1021
EGSH 212150Z AUTO VRB03KT 9999 OVC033/// 16/14 Q1022
EGSH 212120Z AUTO VRB03KT 9999 BKN033/// 17/14 Q1022
EGSH 212050Z AUTO 16004KT 120V220 9999 SCT035/// 16/13 Q1022
EGSH 212020Z 18004KT 120V240 9999 BKN030 17/13 Q1022 NOSIG  
EGSH 211950Z 14004KT 100V190 9999 BKN033 17/13 Q1021 NOSIG  
EGSH 211920Z 14004KT 110V190 9999 BKN033 17/13 Q1021 NOSIG  
EGSH 211850Z 15005KT 100V200 9999 BKN033 18/13 Q1021 NOSIG  
EGSH 211820Z 16005KT 110V220 9999 SCT028 18/13 Q1021 NOSIG  
EGSH 211750Z 17005KT 120V230 9999 SCT026 18/13 Q1021 NOSIG  
EGSH 211720Z 14005KT 110V200 9999 SCT026 19/13 Q1021 NOSIG  
EGSH 211650Z 14007KT 110V180 9999 SCT032 19/13 Q1021 NOSIG  
EGSH 211620Z 14006KT 100V190 9999 SCT032 19/13 Q1021 NOSIG  
EGSH 211550Z 12006KT 090V190 9999 SCT032 20/13 Q1021 NOSIG  
EGSH 211520Z 14005KT 100V210 9999 SCT032 20/12 Q1021 NOSIG  
EGSH 211450Z 14006KT 090V210 9999 SCT032 20/12 Q1021 NOSIG  
EGSH 211420Z 14007KT 080V200 9999 SCT039 20/13 Q1021 NOSIG  
EGSH 211350Z 17005KT 110V240 9999 SCT039 20/13 Q1021 NOSIG  
EGSH 211320Z 16007KT 110V220 9999 SCT032 20/13 Q1022 NOSIG  
EGSH 211250Z 17007KT 130V230 9999 SCT032 20/12 Q1022 NOSIG  
EGSH 211220Z 18005KT 120V260 9999 SCT032 19/13 Q1022 NOSIG  
EGSH 211150Z 15006KT 110V220 9999 SCT032 20/12 Q1022 NOSIG